Main page
METAR-TAF:

METAR-TAF

Airports :

Algiers, Algeria

Houari Boumediene Airport

latitude: 36-43N, longitude: 003-15E, elevation: 25 m

Current weather observation

The report was made 38 minutes ago, at 20:00 UTC
Wind 6 kt from the Northeast
Temperature 23°C
Humidity 89%
Pressure 1020 hPa
Visibility 10 km or more
no clouds below 1500 m and no cumulonimbus

METAR: DAAG 232000Z 05006KT CAVOK 23/21 Q1020

Time: 21:38 (20:38 UTC)

Forecast

The report was made 3 hours and 38 minutes ago, at 17:00 UTC
Forecast valid from 23 at 18 UTC to 24 at 18 UTC
Wind 2 kt from variable directions
Visibility 10 km or more
Few clouds at a height of 1600 ft
Probability 30% :
Temporary
from 24 at 00 UTC to 24 at 04 UTC
Visibility: 4000 m
Broken clouds at a height of 1500 ft
mist
Becoming
from 24 at 09 UTC to 24 at 12 UTC
Wind 10 kt from the Northeast

TAF: DAAG 231700Z 2318/2418 VRB02KT 9999 FEW016 PROB30 TEMPO 2400/2404 4000 BR BKN015 BECMG 2409/2412 04010KT

Weather observations and forecasts of more than 4000 airports (METAR and TAF reports).

The available stations are represented by yellow and red dots on the map.

Hover mouse over dot to see the name of the station.

Then click to see weather observations and forecasts.

To change the map : click on the green buttons with a black cross to zoom in, on the green button with a dash to zoom out, or on the green arrows for adjacent maps.


METAR-TAF: